Time;durP1;ratioP1;P1;durP2;ratioP2;P2;SDS_P1;SDS_P2;PMS_P1;PMS_P2;Temp;Humidity;BMP_temperature;BMP_pressure;BME280_temperature;BME280_humidity;BME280_pressure;Samples;Min_cycle;Max_cycle;Signal;HPM_P1;HPM_P2
2023/04/24 00:00:33;;;;;;;27.38;16.08;;;;;;;;;;5036292;28;20032;-72
2023/04/24 00:03:00;;;;;;;27.38;14.73;;;;;;;;;;5036277;28;20021;-72
2023/04/24 00:05:27;;;;;;;33.13;15.98;;;;;;;;;;5036340;28;20029;-74
2023/04/24 00:07:54;;;;;;;31.42;16.55;;;;;;;;;;5036203;28;20017;-73
2023/04/24 00:10:21;;;;;;;32.13;15.38;;;;;;;;;;5036109;28;20064;-71
2023/04/24 00:12:47;;;;;;;35.30;24.83;;;;;;;;;;5036258;28;20471;-71
2023/04/24 00:15:14;;;;;;;40.20;23.20;;;;;;;;;;5036116;28;20079;-74
2023/04/24 00:17:41;;;;;;;21.02;13.30;;;;;;;;;;5036005;28;20106;-72
2023/04/24 00:20:08;;;;;;;21.58;11.75;;;;;;;;;;5035991;28;20017;-73
2023/04/24 00:22:34;;;;;;;19.00;11.48;;;;;;;;;;5035914;28;20026;-74
2023/04/24 00:25:01;;;;;;;19.45;9.90;;;;;;;;;;5034987;28;20018;-74
2023/04/24 00:27:28;;;;;;;15.65;8.32;;;;;;;;;;5035613;28;20084;-73
2023/04/24 00:29:54;;;;;;;16.13;9.35;;;;;;;;;;5043004;28;20032;-73
2023/04/24 00:32:21;;;;;;;19.02;11.73;;;;;;;;;;5039671;28;20110;-73
2023/04/24 00:34:47;;;;;;;10.77;8.13;;;;;;;;;;5035732;28;20373;-73
2023/04/24 00:37:14;;;;;;;16.23;8.45;;;;;;;;;;5051034;28;20363;-72
2023/04/24 00:39:41;;;;;;;17.77;7.47;;;;;;;;;;5035591;28;20056;-74
2023/04/24 00:42:07;;;;;;;12.23;8.20;;;;;;;;;;5035656;28;20095;-75
2023/04/24 00:44:34;;;;;;;12.25;8.30;;;;;;;;;;5035717;28;20081;-73
2023/04/24 00:47:01;;;;;;;11.18;7.30;;;;;;;;;;5035571;28;20041;-74
2023/04/24 00:49:28;;;;;;;25.20;13.07;;;;;;;;;;5035443;28;20021;-75
2023/04/24 00:51:55;;;;;;;23.38;12.88;;;;;;;;;;5035629;28;20021;-74
2023/04/24 00:54:21;;;;;;;16.63;8.60;;;;;;;;;;5035535;28;20052;-75
2023/04/24 00:56:48;;;;;;;17.00;8.57;;;;;;;;;;5035327;28;20027;-75
2023/04/24 00:59:17;;;;;;;11.45;8.25;;;;;;;;;;5035439;28;20017;-75
2023/04/24 01:01:45;;;;;;;12.63;8.13;;;;;;;;;;5035315;28;20025;-75
2023/04/24 01:04:12;;;;;;;14.88;8.88;;;;;;;;;;5035215;28;20025;-75
2023/04/24 01:06:40;;;;;;;13.85;7.10;;;;;;;;;;5035273;28;20025;-75
2023/04/24 01:09:08;;;;;;;15.82;8.30;;;;;;;;;;5035234;28;20108;-75
2023/04/24 01:11:35;;;;;;;17.63;8.75;;;;;;;;;;5034939;28;20021;-75
2023/04/24 01:14:02;;;;;;;11.50;7.55;;;;;;;;;;5035121;28;20021;-74
2023/04/24 01:16:28;;;;;;;21.65;9.45;;;;;;;;;;5035041;28;20029;-72
2023/04/24 01:18:55;;;;;;;12.63;10.10;;;;;;;;;;5050021;28;20032;-71
2023/04/24 01:21:22;;;;;;;12.93;8.93;;;;;;;;;;5049867;28;20032;-72
2023/04/24 01:23:49;;;;;;;17.67;9.00;;;;;;;;;;5054758;28;20025;-69
2023/04/24 01:26:16;;;;;;;16.08;10.93;;;;;;;;;;5054654;28;20029;-71
2023/04/24 01:28:43;;;;;;;18.33;11.63;;;;;;;;;;5054811;28;20100;-71
2023/04/24 01:31:10;;;;;;;16.05;10.45;;;;;;;;;;5048921;28;20442;-71
2023/04/24 01:33:36;;;;;;;13.45;8.82;;;;;;;;;;5034562;28;20025;-71
2023/04/24 01:36:03;;;;;;;12.90;9.07;;;;;;;;;;5034663;28;20025;-71
2023/04/24 01:38:30;;;;;;;15.68;8.23;;;;;;;;;;5051855;28;20091;-72
2023/04/24 01:40:56;;;;;;;20.15;8.95;;;;;;;;;;5054096;28;20052;-71
2023/04/24 01:43:24;;;;;;;16.38;9.23;;;;;;;;;;5054484;28;20024;-72
2023/04/24 01:45:51;;;;;;;15.13;9.57;;;;;;;;;;5054367;28;20474;-72
2023/04/24 01:48:17;;;;;;;13.85;8.98;;;;;;;;;;5054158;28;20029;-72
2023/04/24 01:50:44;;;;;;;13.68;9.32;;;;;;;;;;5054333;28;20474;-72
2023/04/24 01:53:11;;;;;;;19.80;11.75;;;;;;;;;;5051242;28;20040;-72
2023/04/24 01:55:37;;;;;;;15.45;10.75;;;;;;;;;;5034146;28;20079;-69
2023/04/24 01:58:04;;;;;;;17.65;11.63;;;;;;;;;;5034281;28;20025;-69
2023/04/24 02:00:31;;;;;;;17.38;11.85;;;;;;;;;;5034077;28;20371;-70
2023/04/24 02:02:57;;;;;;;17.13;12.40;;;;;;;;;;5039331;28;20109;-69
2023/04/24 02:05:24;;;;;;;17.52;11.13;;;;;;;;;;5034219;28;20468;-70
2023/04/24 02:07:51;;;;;;;17.95;13.00;;;;;;;;;;5042780;28;20025;-70
2023/04/24 02:10:18;;;;;;;17.55;12.23;;;;;;;;;;5033996;28;20018;-69
2023/04/24 02:12:44;;;;;;;21.85;13.38;;;;;;;;;;5033870;28;20103;-70
2023/04/24 02:15:12;;;;;;;21.33;13.50;;;;;;;;;;5033866;28;20021;-71
2023/04/24 02:17:39;;;;;;;27.75;15.13;;;;;;;;;;5033827;28;20151;-70
2023/04/24 02:20:06;;;;;;;21.75;15.10;;;;;;;;;;5033875;28;20044;-70
2023/04/24 02:22:33;;;;;;;23.00;15.40;;;;;;;;;;5033589;28;20032;-70
2023/04/24 02:25:00;;;;;;;23.67;16.15;;;;;;;;;;5033548;28;20028;-71
2023/04/24 02:27:26;;;;;;;24.27;17.38;;;;;;;;;;5039166;28;20029;-71
2023/04/24 02:29:53;;;;;;;26.85;17.75;;;;;;;;;;5042361;28;20018;-71
2023/04/24 02:32:20;;;;;;;24.55;17.17;;;;;;;;;;5033722;28;20389;-70
2023/04/24 02:34:46;;;;;;;26.38;19.15;;;;;;;;;;5033497;28;20025;-71
2023/04/24 02:37:13;;;;;;;31.80;20.55;;;;;;;;;;5033552;28;20053;-71
2023/04/24 02:39:39;;;;;;;23.52;17.77;;;;;;;;;;5033464;28;20053;-71
2023/04/24 02:42:07;;;;;;;28.80;18.98;;;;;;;;;;5033325;28;20036;-70
2023/04/24 02:44:34;;;;;;;33.03;20.75;;;;;;;;;;5033496;28;20104;-71
2023/04/24 02:47:01;;;;;;;32.97;22.40;;;;;;;;;;5033398;28;20025;-73
2023/04/24 02:49:28;;;;;;;36.55;25.30;;;;;;;;;;5045127;28;20017;-71
2023/04/24 02:51:54;;;;;;;33.67;25.67;;;;;;;;;;5045125;28;20033;-76
2023/04/24 02:54:21;;;;;;;48.03;31.17;;;;;;;;;;5047711;28;20557;-71
2023/04/24 02:56:47;;;;;;;36.92;28.65;;;;;;;;;;5052224;28;20025;-72
2023/04/24 02:59:14;;;;;;;46.67;31.30;;;;;;;;;;5042532;28;20427;-69
2023/04/24 03:01:41;;;;;;;44.50;32.15;;;;;;;;;;5045118;28;20035;-69
2023/04/24 03:04:07;;;;;;;43.13;31.60;;;;;;;;;;5051972;28;20370;-70
2023/04/24 03:06:35;;;;;;;52.67;33.78;;;;;;;;;;5052235;28;20501;-71
2023/04/24 03:09:03;;;;;;;43.47;32.20;;;;;;;;;;5041754;28;20067;-70
2023/04/24 03:11:29;;;;;;;48.75;32.35;;;;;;;;;;5042921;28;20373;-69
2023/04/24 03:13:56;;;;;;;50.38;34.72;;;;;;;;;;5041993;28;20033;-72
2023/04/24 03:16:23;;;;;;;48.80;33.17;;;;;;;;;;5048409;28;20381;-73
2023/04/24 03:18:49;;;;;;;44.20;32.10;;;;;;;;;;5048313;28;20025;-67
2023/04/24 03:21:16;;;;;;;56.00;36.38;;;;;;;;;;5049282;28;20525;-68
2023/04/24 03:23:42;;;;;;;47.65;32.33;;;;;;;;;;5042242;28;20032;-68
2023/04/24 03:26:09;;;;;;;48.22;33.13;;;;;;;;;;5039019;28;20049;-70
2023/04/24 03:28:36;;;;;;;47.90;33.33;;;;;;;;;;5039731;28;20053;-68
2023/04/24 03:31:03;;;;;;;43.03;31.20;;;;;;;;;;5033274;28;20505;-69
2023/04/24 03:33:30;;;;;;;47.35;32.30;;;;;;;;;;5038454;28;20492;-74
2023/04/24 03:35:56;;;;;;;41.70;29.50;;;;;;;;;;5038223;28;20084;-74
2023/04/24 03:38:23;;;;;;;43.92;31.95;;;;;;;;;;5034426;28;20034;-75
2023/04/24 03:40:50;;;;;;;41.55;31.55;;;;;;;;;;5051819;28;20134;-72
2023/04/24 03:43:16;;;;;;;45.72;34.10;;;;;;;;;;5041239;28;20021;-70
2023/04/24 03:45:43;;;;;;;42.38;32.25;;;;;;;;;;5052256;28;20040;-71
2023/04/24 03:48:09;;;;;;;47.47;32.63;;;;;;;;;;5049914;28;20363;-72
2023/04/24 03:50:36;;;;;;;41.78;30.75;;;;;;;;;;5052389;28;20028;-71
2023/04/24 03:53:03;;;;;;;40.92;30.60;;;;;;;;;;5045240;28;20051;-71
2023/04/24 03:55:30;;;;;;;40.28;30.90;;;;;;;;;;5038189;28;20025;-71
2023/04/24 03:57:56;;;;;;;39.63;29.58;;;;;;;;;;5043042;28;20482;-71
2023/04/24 04:00:23;;;;;;;41.00;29.15;;;;;;;;;;5034597;28;20022;-70
2023/04/24 04:02:50;;;;;;;45.08;29.17;;;;;;;;;;5038357;28;20390;-71
2023/04/24 04:05:16;;;;;;;34.22;26.20;;;;;;;;;;5045379;28;20080;-71
2023/04/24 04:07:43;;;;;;;36.30;26.90;;;;;;;;;;5043461;28;20033;-72
2023/04/24 04:10:09;;;;;;;35.28;25.90;;;;;;;;;;5038399;28;20416;-71
2023/04/24 04:12:36;;;;;;;29.95;21.88;;;;;;;;;;5036038;28;20052;-71
2023/04/24 04:15:03;;;;;;;31.70;22.20;;;;;;;;;;5036147;28;20026;-69
2023/04/24 04:17:30;;;;;;;31.48;23.77;;;;;;;;;;5036027;28;20033;-70
2023/04/24 04:19:57;;;;;;;30.80;22.73;;;;;;;;;;5049568;28;20385;-70
2023/04/24 04:22:23;;;;;;;74.30;51.22;;;;;;;;;;5053007;28;20039;-69
2023/04/24 04:24:50;;;;;;;105.82;78.60;;;;;;;;;;5053792;28;20071;-73
2023/04/24 04:27:18;;;;;;;42.33;33.55;;;;;;;;;;5054348;28;20037;-70
2023/04/24 04:29:45;;;;;;;47.03;30.15;;;;;;;;;;5054852;28;20025;-74
2023/04/24 04:32:12;;;;;;;29.27;21.50;;;;;;;;;;5058699;28;20059;-71
2023/04/24 04:34:39;;;;;;;28.92;21.90;;;;;;;;;;5055702;28;20025;-71
2023/04/24 04:37:06;;;;;;;28.42;20.17;;;;;;;;;;5054876;28;20048;-69
2023/04/24 04:39:32;;;;;;;28.17;22.25;;;;;;;;;;5051623;28;20045;-68
2023/04/24 04:42:00;;;;;;;35.97;24.85;;;;;;;;;;5049287;28;20035;-71
2023/04/24 04:44:27;;;;;;;42.22;29.35;;;;;;;;;;5053942;28;20029;-70
2023/04/24 04:46:56;;;;;;;52.20;35.83;;;;;;;;;;5054506;28;20094;-71
2023/04/24 04:49:23;;;;;;;171.73;97.13;;;;;;;;;;5053999;28;20100;-71
2023/04/24 04:51:50;;;;;;;82.35;53.17;;;;;;;;;;5056687;28;20268;-72
2023/04/24 04:54:17;;;;;;;35.10;24.05;;;;;;;;;;5053018;28;20025;-74
2023/04/24 04:56:44;;;;;;;16.50;10.75;;;;;;;;;;5054454;28;20501;-71
2023/04/24 04:59:10;;;;;;;15.00;10.15;;;;;;;;;;5054500;28;20037;-67
2023/04/24 05:01:38;;;;;;;23.85;15.05;;;;;;;;;;5050116;28;20112;-72
2023/04/24 05:04:04;;;;;;;28.33;15.45;;;;;;;;;;5047063;28;20025;-68
2023/04/24 05:06:31;;;;;;;40.08;27.65;;;;;;;;;;5053725;28;20027;-70
2023/04/24 05:08:58;;;;;;;38.78;25.65;;;;;;;;;;5051391;28;20112;-67
2023/04/24 05:11:24;;;;;;;27.58;14.27;;;;;;;;;;5053668;28;20047;-69
2023/04/24 05:13:51;;;;;;;37.25;25.63;;;;;;;;;;5053559;28;20036;-68
2023/04/24 05:16:17;;;;;;;130.48;94.07;;;;;;;;;;5052853;28;20036;-70
2023/04/24 05:18:44;;;;;;;37.72;25.20;;;;;;;;;;5054027;28;20090;-70
2023/04/24 05:21:11;;;;;;;29.50;19.75;;;;;;;;;;5054039;28;20025;-70
2023/04/24 05:23:37;;;;;;;81.07;59.95;;;;;;;;;;5045797;28;20099;-72
2023/04/24 05:26:04;;;;;;;33.67;22.75;;;;;;;;;;5053191;28;20524;-70
2023/04/24 05:28:31;;;;;;;31.63;18.00;;;;;;;;;;5054160;28;20078;-74
2023/04/24 05:30:59;;;;;;;22.42;14.02;;;;;;;;;;5053860;28;20028;-70
2023/04/24 05:33:26;;;;;;;18.83;12.60;;;;;;;;;;5053950;28;20508;-66
2023/04/24 05:35:52;;;;;;;18.73;12.38;;;;;;;;;;5051246;28;20033;-70
2023/04/24 05:38:19;;;;;;;17.88;12.07;;;;;;;;;;5049975;28;20155;-67
2023/04/24 05:40:47;;;;;;;20.83;12.88;;;;;;;;;;5052575;28;20045;-69
2023/04/24 05:43:14;;;;;;;17.25;11.93;;;;;;;;;;5042848;28;20036;-71
2023/04/24 05:45:40;;;;;;;17.25;11.18;;;;;;;;;;5049237;28;20017;-75
2023/04/24 05:48:07;;;;;;;21.77;13.82;;;;;;;;;;5054057;28;20047;-70
2023/04/24 05:50:33;;;;;;;20.58;14.00;;;;;;;;;;5063491;28;20020;-70
2023/04/24 05:53:01;;;;;;;23.25;16.08;;;;;;;;;;5051759;28;20033;-69
2023/04/24 05:55:28;;;;;;;26.70;18.60;;;;;;;;;;5052598;28;20386;-66
2023/04/24 05:57:55;;;;;;;29.88;21.20;;;;;;;;;;5048693;28;20104;-70
2023/04/24 06:00:21;;;;;;;35.33;21.65;;;;;;;;;;5051269;28;20306;-72
2023/04/24 06:02:48;;;;;;;27.10;19.42;;;;;;;;;;5062046;28;20081;-68
2023/04/24 06:05:15;;;;;;;34.55;20.50;;;;;;;;;;5054090;28;20021;-71
2023/04/24 06:07:41;;;;;;;30.73;19.58;;;;;;;;;;5048331;28;20022;-69
2023/04/24 06:10:08;;;;;;;23.02;17.60;;;;;;;;;;5049079;28;20016;-66
2023/04/24 06:12:36;;;;;;;15.38;11.48;;;;;;;;;;5052227;28;20025;-67
2023/04/24 06:15:03;;;;;;;18.55;11.73;;;;;;;;;;5048186;28;20032;-68
2023/04/24 06:17:29;;;;;;;21.73;16.88;;;;;;;;;;5046894;28;20028;-71
2023/04/24 06:19:56;;;;;;;36.10;25.20;;;;;;;;;;5049439;28;20036;-70
2023/04/24 06:22:23;;;;;;;32.33;23.73;;;;;;;;;;5052093;28;20025;-70
2023/04/24 06:24:49;;;;;;;37.08;25.92;;;;;;;;;;5045705;28;20032;-69
2023/04/24 06:27:16;;;;;;;46.53;33.92;;;;;;;;;;5053081;28;20501;-68
2023/04/24 06:29:43;;;;;;;48.30;33.83;;;;;;;;;;5053048;28;20075;-73
2023/04/24 06:32:09;;;;;;;43.85;32.05;;;;;;;;;;5053073;28;20025;-70
2023/04/24 06:34:36;;;;;;;43.60;28.35;;;;;;;;;;5040325;28;20273;-74
2023/04/24 06:37:03;;;;;;;38.63;25.10;;;;;;;;;;5043996;28;20099;-71
2023/04/24 06:39:29;;;;;;;28.50;18.30;;;;;;;;;;5042705;28;20129;-70
2023/04/24 06:41:56;;;;;;;24.10;17.02;;;;;;;;;;5052842;28;20025;-71
2023/04/24 06:44:25;;;;;;;29.63;19.25;;;;;;;;;;5050335;28;20280;-70
2023/04/24 06:46:51;;;;;;;32.45;20.85;;;;;;;;;;5052835;28;20028;-72
2023/04/24 06:49:18;;;;;;;27.15;18.90;;;;;;;;;;5052861;28;20021;-70
2023/04/24 06:51:45;;;;;;;23.85;16.02;;;;;;;;;;5052101;28;20048;-73
2023/04/24 06:54:11;;;;;;;22.63;16.40;;;;;;;;;;5050898;28;20025;-71
2023/04/24 06:56:38;;;;;;;24.08;17.48;;;;;;;;;;5051869;28;21020;-72
2023/04/24 06:59:04;;;;;;;24.13;16.95;;;;;;;;;;5049710;28;20401;-70
2023/04/24 07:01:31;;;;;;;19.52;13.98;;;;;;;;;;5051563;28;20029;-70
2023/04/24 07:03:59;;;;;;;20.63;12.30;;;;;;;;;;5050921;28;20025;-68
2023/04/24 07:06:27;;;;;;;11.35;9.02;;;;;;;;;;5051885;28;20032;-70
2023/04/24 07:08:53;;;;;;;14.38;9.80;;;;;;;;;;5050847;28;20474;-69
2023/04/24 07:11:20;;;;;;;8.77;5.82;;;;;;;;;;5052862;28;20104;-69
2023/04/24 07:13:47;;;;;;;9.00;5.47;;;;;;;;;;5052753;28;20025;-71
2023/04/24 07:16:14;;;;;;;8.48;5.38;;;;;;;;;;5042273;28;20025;-68
2023/04/24 07:18:40;;;;;;;12.43;7.95;;;;;;;;;;5045103;28;20033;-70
2023/04/24 07:21:07;;;;;;;13.40;8.52;;;;;;;;;;5046564;28;20082;-70
2023/04/24 07:23:33;;;;;;;9.55;8.38;;;;;;;;;;5050742;28;20027;-67
2023/04/24 07:26:00;;;;;;;13.57;9.15;;;;;;;;;;5049702;28;20022;-69
2023/04/24 07:28:30;;;;;;;12.52;8.38;;;;;;;;;;5040676;28;20507;-69
2023/04/24 07:30:58;;;;;;;9.20;8.07;;;;;;;;;;5037215;28;20235;-70
2023/04/24 07:33:25;;;;;;;15.07;9.10;;;;;;;;;;5045541;28;20076;-70
2023/04/24 07:35:51;;;;;;;11.82;8.90;;;;;;;;;;5049643;28;20112;-69
2023/04/24 07:38:21;;;;;;;13.18;9.43;;;;;;;;;;5054434;28;20057;-69
2023/04/24 07:40:49;;;;;;;12.05;9.82;;;;;;;;;;5052131;28;20063;-69
2023/04/24 07:43:16;;;;;;;12.27;9.05;;;;;;;;;;5053951;28;20510;-69
2023/04/24 07:45:42;;;;;;;10.77;8.80;;;;;;;;;;5044224;28;20056;-68
2023/04/24 07:48:09;;;;;;;11.38;8.93;;;;;;;;;;5043500;28;20025;-69
2023/04/24 07:50:36;;;;;;;12.00;8.60;;;;;;;;;;5051805;28;20067;-68
2023/04/24 07:53:03;;;;;;;11.23;8.85;;;;;;;;;;5041970;28;20044;-69
2023/04/24 07:55:29;;;;;;;13.18;7.82;;;;;;;;;;5041956;28;20029;-69
2023/04/24 07:57:56;;;;;;;10.75;8.15;;;;;;;;;;5052730;28;20053;-69
2023/04/24 08:00:23;;;;;;;13.65;8.25;;;;;;;;;;5041856;28;20048;-67
2023/04/24 08:02:49;;;;;;;9.50;7.70;;;;;;;;;;5041617;28;20029;-67
2023/04/24 08:05:16;;;;;;;10.68;7.15;;;;;;;;;;5053754;28;20017;-67
2023/04/24 08:07:42;;;;;;;10.45;8.18;;;;;;;;;;5043477;28;20139;-67
2023/04/24 08:10:11;;;;;;;9.75;7.22;;;;;;;;;;5044663;28;20029;-67
2023/04/24 08:12:38;;;;;;;9.27;6.70;;;;;;;;;;5052519;28;20029;-66
2023/04/24 08:15:05;;;;;;;9.77;6.00;;;;;;;;;;5055032;28;20053;-66
2023/04/24 08:17:32;;;;;;;12.90;5.18;;;;;;;;;;5054966;28;20029;-66
2023/04/24 08:20:01;;;;;;;17.58;6.45;;;;;;;;;;5054880;28;20098;-66
2023/04/24 08:22:28;;;;;;;14.50;5.60;;;;;;;;;;5052941;28;20012;-68
2023/04/24 08:24:56;;;;;;;12.30;4.97;;;;;;;;;;5055581;28;20075;-69
2023/04/24 08:27:23;;;;;;;10.07;5.38;;;;;;;;;;5055973;28;20092;-69
2023/04/24 08:29:50;;;;;;;8.20;5.00;;;;;;;;;;5055817;28;20017;-68
2023/04/24 08:32:17;;;;;;;15.98;6.38;;;;;;;;;;5055689;28;20037;-69
2023/04/24 08:34:44;;;;;;;10.30;6.15;;;;;;;;;;5055374;28;20021;-67
2023/04/24 08:37:11;;;;;;;15.68;7.10;;;;;;;;;;5055552;28;20055;-68
2023/04/24 08:39:38;;;;;;;11.57;5.30;;;;;;;;;;5055490;28;20057;-68
2023/04/24 08:42:07;;;;;;;10.90;4.72;;;;;;;;;;5055244;28;20032;-69
2023/04/24 08:44:35;;;;;;;9.93;5.00;;;;;;;;;;5055392;28;20409;-69
2023/04/24 08:47:03;;;;;;;7.63;5.05;;;;;;;;;;5054692;28;20032;-69
2023/04/24 08:49:30;;;;;;;7.43;4.78;;;;;;;;;;5055325;28;20029;-68
2023/04/24 08:51:57;;;;;;;10.27;4.60;;;;;;;;;;5055455;28;20044;-69
2023/04/24 08:54:24;;;;;;;6.50;4.13;;;;;;;;;;5055276;28;20029;-69
2023/04/24 08:56:51;;;;;;;9.10;4.38;;;;;;;;;;5055094;28;20035;-66
2023/04/24 08:59:18;;;;;;;6.78;4.35;;;;;;;;;;5055034;28;20029;-67
2023/04/24 09:01:46;;;;;;;10.38;5.07;;;;;;;;;;5053154;28;20021;-68
2023/04/24 09:04:14;;;;;;;10.95;6.00;;;;;;;;;;5048257;28;20030;-69
2023/04/24 09:06:41;;;;;;;9.02;5.18;;;;;;;;;;5052193;28;20432;-69
2023/04/24 09:09:08;;;;;;;13.60;4.78;;;;;;;;;;5052557;28;20123;-69
2023/04/24 09:11:35;;;;;;;55.65;37.95;;;;;;;;;;5053642;28;20025;-67
2023/04/24 09:14:01;;;;;;;62.30;42.25;;;;;;;;;;5051599;28;20688;-72
2023/04/24 09:16:29;;;;;;;152.93;104.03;;;;;;;;;;5054776;28;20025;-70
2023/04/24 09:18:56;;;;;;;87.78;62.97;;;;;;;;;;5052500;28;20075;-72
2023/04/24 09:21:23;;;;;;;89.05;69.25;;;;;;;;;;5053320;28;20029;-67
2023/04/24 09:24:00;;;;;;;48.05;32.83;;;;;;;;;;5054398;28;20541;-68
2023/04/24 09:26:26;;;;;;;28.13;20.13;;;;;;;;;;5053722;28;20025;-67
2023/04/24 09:28:54;;;;;;;10.57;5.97;;;;;;;;;;5054284;28;20048;-66
2023/04/24 09:31:22;;;;;;;8.95;3.70;;;;;;;;;;5045549;28;20021;-70
2023/04/24 09:34:00;;;;;;;6.80;3.10;;;;;;;;;;5054310;28;20033;-66
2023/04/24 09:36:32;;;;;;;19.13;13.18;;;;;;;;;;5049660;28;20028;-67
2023/04/24 09:38:59;;;;;;;;;;;;;;;;;;5044549;28;20040;-65
2023/04/24 09:41:26;;;;;;;38.13;21.75;;;;;;;;;;5049671;28;19913;-69
2023/04/24 09:43:55;;;;;;;97.55;73.15;;;;;;;;;;5054172;28;20501;-68
2023/04/24 09:46:22;;;;;;;45.95;33.50;;;;;;;;;;5052957;28;20101;-70
2023/04/24 09:48:48;;;;;;;51.00;36.67;;;;;;;;;;5054392;28;20096;-66
2023/04/24 09:51:15;;;;;;;30.92;20.67;;;;;;;;;;5053922;28;20086;-66
2023/04/24 09:53:46;;;;;;;20.77;12.40;;;;;;;;;;5053249;28;20025;-65
2023/04/24 09:56:13;;;;;;;11.98;8.27;;;;;;;;;;5053802;28;20047;-66
2023/04/24 09:58:39;;;;;;;20.90;11.60;;;;;;;;;;5052336;28;20469;-67
2023/04/24 10:01:06;;;;;;;37.35;25.58;;;;;;;;;;5050629;28;20330;-66
2023/04/24 10:03:33;;;;;;;48.45;28.55;;;;;;;;;;5054178;28;20029;-66
2023/04/24 10:06:01;;;;;;;112.47;57.45;;;;;;;;;;5043095;28;20027;-64
2023/04/24 10:08:34;;;;;;;37.17;26.25;;;;;;;;;;5051641;28;20025;-69
2023/04/24 10:11:01;;;;;;;16.73;10.30;;;;;;;;;;5050985;28;20380;-65
2023/04/24 10:13:28;;;;;;;91.93;62.53;;;;;;;;;;5053106;28;20028;-69
2023/04/24 10:15:57;;;;;;;38.45;24.63;;;;;;;;;;5053624;28;20033;-67
2023/04/24 10:18:24;;;;;;;75.03;44.55;;;;;;;;;;5052880;28;20485;-65
2023/04/24 10:20:51;;;;;;;301.00;163.50;;;;;;;;;;5053040;28;20033;-65
2023/04/24 10:23:19;;;;;;;37.10;25.95;;;;;;;;;;5048922;28;20030;-66
2023/04/24 10:25:46;;;;;;;19.65;11.45;;;;;;;;;;5044700;28;20029;-67
2023/04/24 10:28:13;;;;;;;26.38;13.38;;;;;;;;;;5052015;28;20482;-66
2023/04/24 10:30:39;;;;;;;33.85;20.48;;;;;;;;;;5053626;28;20363;-73
2023/04/24 10:33:08;;;;;;;26.17;14.82;;;;;;;;;;5048443;28;20108;-65
2023/04/24 10:35:36;;;;;;;20.92;9.52;;;;;;;;;;5052452;28;20047;-66
2023/04/24 10:38:13;;;;;;;20.38;10.05;;;;;;;;;;5053137;28;20021;-68
2023/04/24 10:40:40;;;;;;;29.52;23.23;;;;;;;;;;5047472;28;20448;-68
2023/04/24 10:43:09;;;;;;;12.95;7.93;;;;;;;;;;5053028;28;20020;-67
2023/04/24 10:45:36;;;;;;;7.03;4.93;;;;;;;;;;5050490;28;20028;-70
2023/04/24 10:48:04;;;;;;;7.60;4.80;;;;;;;;;;5053217;28;20112;-71
2023/04/24 10:50:42;;;;;;;8.60;5.18;;;;;;;;;;5051689;28;20029;-71
2023/04/24 10:53:13;;;;;;;21.80;14.85;;;;;;;;;;5050489;28;20462;-70
2023/04/24 10:55:45;;;;;;;21.00;15.70;;;;;;;;;;5053964;28;20087;-70
2023/04/24 10:58:12;;;;;;;85.60;66.88;;;;;;;;;;5052062;28;20309;-67
2023/04/24 11:00:40;;;;;;;16.98;9.80;;;;;;;;;;5053424;28;20036;-74
2023/04/24 11:03:07;;;;;;;113.00;81.95;;;;;;;;;;5050633;28;20014;-68
2023/04/24 11:05:54;;;;;;;39.13;23.38;;;;;;;;;;5053031;28;20028;-69
2023/04/24 11:08:40;;;;;;;20.42;11.20;;;;;;;;;;5050765;28;20032;-71
2023/04/24 11:11:10;;;;;;;22.08;12.27;;;;;;;;;;5051147;28;20048;-70
2023/04/24 11:13:48;;;;;;;17.23;11.68;;;;;;;;;;5056415;28;20025;-69
2023/04/24 11:16:15;;;;;;;159.00;107.82;;;;;;;;;;5055885;28;20421;-69
2023/04/24 11:18:46;;;;;;;49.20;32.20;;;;;;;;;;5056278;28;20020;-68
2023/04/24 11:21:13;;;;;;;31.98;14.35;;;;;;;;;;5056404;28;20044;-71
2023/04/24 11:23:40;;;;;;;23.80;12.57;;;;;;;;;;5055889;28;20017;-70
2023/04/24 11:26:11;;;;;;;28.83;12.80;;;;;;;;;;5051078;28;20029;-70
2023/04/24 11:28:38;;;;;;;32.35;16.40;;;;;;;;;;5055476;28;20033;-72
2023/04/24 11:31:24;;;;;;;33.92;17.50;;;;;;;;;;5050960;28;20021;-73
2023/04/24 11:33:51;;;;;;;36.88;19.08;;;;;;;;;;5052979;28;20140;-70
2023/04/24 11:36:18;;;;;;;46.85;21.63;;;;;;;;;;5055305;28;20127;-71
2023/04/24 11:38:45;;;;;;;33.40;18.42;;;;;;;;;;5053968;28;20045;-71
2023/04/24 11:41:12;;;;;;;39.15;16.50;;;;;;;;;;5055176;28;20029;-71
2023/04/24 11:43:39;;;;;;;25.00;11.25;;;;;;;;;;5055313;28;20025;-70
2023/04/24 11:46:05;;;;;;;18.05;9.20;;;;;;;;;;5053853;28;20053;-72
2023/04/24 11:48:39;;;;;;;16.33;6.68;;;;;;;;;;5056711;28;20490;-72
2023/04/24 11:51:06;;;;;;;15.35;7.47;;;;;;;;;;5055596;28;20081;-73
2023/04/24 11:53:33;;;;;;;17.40;7.22;;;;;;;;;;5056422;28;20025;-72
2023/04/24 11:56:03;;;;;;;11.38;6.78;;;;;;;;;;5054642;28;20485;-72
2023/04/24 11:58:35;;;;;;;12.80;7.00;;;;;;;;;;5055311;28;20025;-72
2023/04/24 12:01:02;;;;;;;;;;;;;;;;;;5056662;28;20029;-74
2023/04/24 12:03:28;;;;;;;28.13;20.02;;;;;;;;;;5054432;28;19912;-72
2023/04/24 12:06:13;;;;;;;91.00;57.13;;;;;;;;;;5055746;28;20020;-71
2023/04/24 12:08:40;;;;;;;22.45;13.23;;;;;;;;;;5070638;23;20067;-72
2023/04/24 12:11:08;;;;;;;16.52;9.75;;;;;;;;;;5055954;28;20036;-75
2023/04/24 12:13:36;;;;;;;22.48;10.90;;;;;;;;;;5054293;28;20022;-71
2023/04/24 12:16:04;;;;;;;14.48;7.93;;;;;;;;;;5053582;28;20108;-72
2023/04/24 12:18:31;;;;;;;11.25;6.25;;;;;;;;;;5036020;28;20390;-72
2023/04/24 12:21:15;;;;;;;14.07;6.50;;;;;;;;;;5052673;28;20025;-73
2023/04/24 12:23:44;;;;;;;12.43;5.45;;;;;;;;;;5053764;28;20025;-72
2023/04/24 12:26:11;;;;;;;10.23;5.38;;;;;;;;;;5053975;28;20029;-72
2023/04/24 12:28:38;;;;;;;11.57;6.03;;;;;;;;;;5054519;28;20494;-76
2023/04/24 12:31:05;;;;;;;12.85;6.45;;;;;;;;;;5055580;28;20028;-76
2023/04/24 12:33:35;;;;;;;10.70;6.70;;;;;;;;;;5055463;28;20029;-76
2023/04/24 12:36:01;;;;;;;8.02;5.50;;;;;;;;;;5055730;28;20086;-74
2023/04/24 12:38:30;;;;;;;14.55;9.27;;;;;;;;;;5055466;28;20029;-72
2023/04/24 12:41:06;;;;;;;12.82;8.90;;;;;;;;;;5055244;28;20025;-72
2023/04/24 12:43:33;;;;;;;11.80;7.38;;;;;;;;;;5055568;28;20049;-77
2023/04/24 12:46:00;;;;;;;10.70;6.65;;;;;;;;;;5055333;28;20021;-75
2023/04/24 12:48:27;;;;;;;12.10;6.43;;;;;;;;;;5055585;28;20021;-77
2023/04/24 12:50:55;;;;;;;11.73;6.68;;;;;;;;;;5055307;28;20029;-75
2023/04/24 12:53:21;;;;;;;24.10;7.10;;;;;;;;;;5055010;28;20021;-74
2023/04/24 12:55:52;;;;;;;12.75;7.15;;;;;;;;;;5055332;28;20032;-73
2023/04/24 12:58:22;;;;;;;14.88;7.00;;;;;;;;;;5054996;28;20096;-72
2023/04/24 13:00:49;;;;;;;12.75;7.95;;;;;;;;;;5054771;28;20462;-72
2023/04/24 13:03:16;;;;;;;16.95;7.88;;;;;;;;;;5054963;28;20029;-72
2023/04/24 13:05:43;;;;;;;13.82;8.65;;;;;;;;;;5055007;28;20386;-73
2023/04/24 13:08:10;;;;;;;17.98;10.25;;;;;;;;;;5054691;28;20041;-72
2023/04/24 13:10:37;;;;;;;18.23;10.57;;;;;;;;;;5054922;28;20470;-72
2023/04/24 13:13:04;;;;;;;23.20;11.85;;;;;;;;;;5055014;28;20031;-72
2023/04/24 13:15:30;;;;;;;23.70;13.75;;;;;;;;;;5054789;28;20116;-72
2023/04/24 13:17:57;;;;;;;23.70;14.80;;;;;;;;;;5054879;28;20048;-74
2023/04/24 13:20:24;;;;;;;20.10;13.88;;;;;;;;;;5046826;28;20107;-77
2023/04/24 13:22:50;;;;;;;19.80;10.43;;;;;;;;;;5054848;28;20040;-73
2023/04/24 13:25:17;;;;;;;9.27;6.93;;;;;;;;;;5054854;28;20017;-75
2023/04/24 13:27:44;;;;;;;10.75;6.40;;;;;;;;;;5054589;28;20017;-77
2023/04/24 13:30:11;;;;;;;9.63;5.88;;;;;;;;;;5054473;28;20393;-78
2023/04/24 13:32:37;;;;;;;7.80;5.50;;;;;;;;;;5054499;28;20483;-75
2023/04/24 13:35:04;;;;;;;10.90;5.85;;;;;;;;;;5054724;28;20385;-76
2023/04/24 13:37:31;;;;;;;9.90;5.18;;;;;;;;;;5054488;28;20021;-78
2023/04/24 13:39:57;;;;;;;9.05;5.43;;;;;;;;;;5054440;28;20441;-75
2023/04/24 13:42:24;;;;;;;10.40;6.30;;;;;;;;;;5054443;28;20036;-76
2023/04/24 13:44:51;;;;;;;11.32;6.00;;;;;;;;;;5054427;28;20135;-74
2023/04/24 13:47:17;;;;;;;11.13;6.20;;;;;;;;;;5054206;28;20381;-72
2023/04/24 13:49:44;;;;;;;13.77;8.00;;;;;;;;;;5054366;28;20019;-72
2023/04/24 13:52:11;;;;;;;12.52;7.95;;;;;;;;;;5054275;28;20184;-69
2023/04/24 13:54:37;;;;;;;18.70;11.23;;;;;;;;;;5053953;28;20406;-72
2023/04/24 13:57:04;;;;;;;22.02;15.82;;;;;;;;;;5054217;28;20078;-71
2023/04/24 13:59:31;;;;;;;26.25;16.33;;;;;;;;;;5054199;28;20029;-71
2023/04/24 14:01:57;;;;;;;22.73;14.25;;;;;;;;;;5053970;28;20029;-72
2023/04/24 14:04:24;;;;;;;16.58;11.40;;;;;;;;;;5054055;28;20087;-83
2023/04/24 14:06:51;;;;;;;20.92;9.82;;;;;;;;;;5054118;28;20505;-81
2023/04/24 14:09:17;;;;;;;12.75;9.57;;;;;;;;;;5053730;28;20065;-76
2023/04/24 14:11:44;;;;;;;21.08;10.93;;;;;;;;;;5053894;28;20021;-73
2023/04/24 14:14:11;;;;;;;28.80;17.60;;;;;;;;;;5053873;28;20032;-77
2023/04/24 14:16:37;;;;;;;33.85;19.77;;;;;;;;;;5053622;28;20051;-78
2023/04/24 14:19:06;;;;;;;37.72;20.42;;;;;;;;;;5053819;28;20017;-77
2023/04/24 14:21:33;;;;;;;28.75;15.20;;;;;;;;;;5053693;28;20366;-76
2023/04/24 14:23:59;;;;;;;19.92;12.30;;;;;;;;;;5053596;28;20028;-74